Time;durP1;ratioP1;P1;durP2;ratioP2;P2;SDS_P1;SDS_P2;PMS_P1;PMS_P2;Temp;Humidity;BMP_temperature;BMP_pressure;BME280_temperature;BME280_humidity;BME280_pressure;Samples;Min_cycle;Max_cycle;Signal;HPM_P1;HPM_P2
2023/04/22 00:01:43;;;;;;;;;24.25;24.25;;;;;;;;4988192;28;45836;-74
2023/04/22 00:04:08;;;;;;;;;24.00;24.00;;;;;;;;4977226;28;45438;-74
2023/04/22 00:06:34;;;;;;;;;30.25;28.50;;;;;;;;4988500;28;45517;-74
2023/04/22 00:08:59;;;;;;;;;28.00;26.75;;;;;;;;4981080;28;45737;-74
2023/04/22 00:11:25;;;;;;;;;26.50;24.50;;;;;;;;4981677;28;45493;-75
2023/04/22 00:13:50;;;;;;;;;33.25;29.75;;;;;;;;4988612;28;45467;-74
2023/04/22 00:16:15;;;;;;;;;30.25;28.25;;;;;;;;4978207;28;46303;-74
2023/04/22 00:18:40;;;;;;;;;29.50;26.00;;;;;;;;4991672;28;45364;-74
2023/04/22 00:21:06;;;;;;;;;32.50;30.75;;;;;;;;4984464;28;45535;-74
2023/04/22 00:23:31;;;;;;;;;27.00;26.00;;;;;;;;4985011;28;45352;-74
2023/04/22 00:25:57;;;;;;;;;29.00;28.00;;;;;;;;4993121;28;45307;-73
2023/04/22 00:28:22;;;;;;;;;32.25;28.00;;;;;;;;4981434;28;45412;-73
2023/04/22 00:30:47;;;;;;;;;27.25;26.25;;;;;;;;4995634;28;45310;-74
2023/04/22 00:33:12;;;;;;;;;29.00;26.75;;;;;;;;4993423;28;45334;-74
2023/04/22 00:35:37;;;;;;;;;26.50;22.50;;;;;;;;4984381;28;45324;-74
2023/04/22 00:38:03;;;;;;;;;26.50;25.75;;;;;;;;4993032;28;45416;-74
2023/04/22 00:40:28;;;;;;;;;27.75;26.50;;;;;;;;4977500;28;45381;-74
2023/04/22 00:42:53;;;;;;;;;32.25;29.50;;;;;;;;4990136;28;45369;-73
2023/04/22 00:45:19;;;;;;;;;22.25;22.25;;;;;;;;4987521;28;46181;-74
2023/04/22 00:47:45;;;;;;;;;30.25;26.50;;;;;;;;4983134;28;45405;-73
2023/04/22 00:50:10;;;;;;;;;26.25;24.75;;;;;;;;4991978;28;45833;-73
2023/04/22 00:52:35;;;;;;;;;30.25;26.75;;;;;;;;4980595;28;45379;-73
2023/04/22 00:55:00;;;;;;;;;30.50;28.25;;;;;;;;4988736;28;46128;-73
2023/04/22 00:57:28;;;;;;;;;27.25;26.75;;;;;;;;4988623;28;45488;-73
2023/04/22 00:59:54;;;;;;;;;32.25;30.00;;;;;;;;4981759;28;45368;-73
2023/04/22 01:02:19;;;;;;;;;16.50;15.75;;;;;;;;4977348;28;45440;-74
2023/04/22 01:04:45;;;;;;;;;30.00;28.75;;;;;;;;4982279;28;46040;-73
2023/04/22 01:07:10;;;;;;;;;34.50;30.50;;;;;;;;4985619;28;45487;-74
2023/04/22 01:09:35;;;;;;;;;28.50;26.50;;;;;;;;4989309;28;45503;-73
2023/04/22 01:12:01;;;;;;;;;32.00;28.75;;;;;;;;4980226;28;45458;-73
2023/04/22 01:14:26;;;;;;;;;35.25;31.00;;;;;;;;4992592;28;45468;-74
2023/04/22 01:16:52;;;;;;;;;33.50;32.00;;;;;;;;4983213;28;45527;-73
2023/04/22 01:19:18;;;;;;;;;30.75;27.00;;;;;;;;4986486;28;45297;-74
2023/04/22 01:21:46;;;;;;;;;39.25;31.00;;;;;;;;4982309;28;45524;-74
2023/04/22 01:24:11;;;;;;;;;32.25;28.00;;;;;;;;4959620;28;45653;-74
2023/04/22 01:26:37;;;;;;;;;29.00;27.25;;;;;;;;4984872;28;45305;-74
2023/04/22 01:29:03;;;;;;;;;28.50;27.25;;;;;;;;4979040;28;45384;-74
2023/04/22 01:31:29;;;;;;;;;29.25;29.00;;;;;;;;4986644;28;45558;-74
2023/04/22 01:33:54;;;;;;;;;28.25;25.75;;;;;;;;4987675;28;45490;-74
2023/04/22 01:36:19;;;;;;;;;23.25;22.50;;;;;;;;4980581;28;45480;-74
2023/04/22 01:38:45;;;;;;;;;18.00;17.75;;;;;;;;4991085;28;45640;-74
2023/04/22 01:41:11;;;;;;;;;27.50;22.75;;;;;;;;4979325;28;45468;-73
2023/04/22 01:43:36;;;;;;;;;26.25;24.75;;;;;;;;4988949;28;45528;-74
2023/04/22 01:46:03;;;;;;;;;23.00;20.00;;;;;;;;4985488;28;45350;-73
2023/04/22 01:48:28;;;;;;;;;26.50;23.50;;;;;;;;4991140;28;45444;-74
2023/04/22 01:50:54;;;;;;;;;22.75;22.75;;;;;;;;4978599;28;45412;-73
2023/04/22 01:53:19;;;;;;;;;29.75;28.50;;;;;;;;4976692;28;46791;-74
2023/04/22 01:55:45;;;;;;;;;22.75;22.75;;;;;;;;4983411;28;45369;-74
2023/04/22 01:58:10;;;;;;;;;26.75;26.25;;;;;;;;4984933;28;45887;-72
2023/04/22 02:00:36;;;;;;;;;27.75;26.50;;;;;;;;4980549;28;45616;-74
2023/04/22 02:03:01;;;;;;;;;27.00;22.75;;;;;;;;4990701;28;46173;-74
2023/04/22 02:05:26;;;;;;;;;30.75;27.75;;;;;;;;4980641;28;45318;-72
2023/04/22 02:07:52;;;;;;;;;26.75;25.00;;;;;;;;4987230;28;45394;-72
2023/04/22 02:10:17;;;;;;;;;24.50;22.75;;;;;;;;4986875;28;45478;-72
2023/04/22 02:12:43;;;;;;;;;26.00;23.50;;;;;;;;4980062;28;46045;-72
2023/04/22 02:15:08;;;;;;;;;30.00;28.25;;;;;;;;4991950;28;45469;-72
2023/04/22 02:17:34;;;;;;;;;21.75;21.75;;;;;;;;4978190;28;46559;-72
2023/04/22 02:19:59;;;;;;;;;23.00;22.50;;;;;;;;4986285;28;45357;-72
2023/04/22 02:22:27;;;;;;;;;25.25;22.50;;;;;;;;4988113;28;45415;-72
2023/04/22 02:24:52;;;;;;;;;21.25;21.25;;;;;;;;4979064;28;45584;-72
2023/04/22 02:27:17;;;;;;;;;20.75;20.75;;;;;;;;4991491;28;45495;-72
2023/04/22 02:29:42;;;;;;;;;26.75;24.50;;;;;;;;4980729;28;45491;-72
2023/04/22 02:32:07;;;;;;;;;23.25;22.00;;;;;;;;4985473;28;47437;-71
2023/04/22 02:34:33;;;;;;;;;24.00;21.75;;;;;;;;4981520;28;45415;-74
2023/04/22 02:36:58;;;;;;;;;26.75;23.00;;;;;;;;4991160;28;45394;-73
2023/04/22 02:39:24;;;;;;;;;28.00;25.25;;;;;;;;4979464;28;45401;-75
2023/04/22 02:41:49;;;;;;;;;22.50;20.50;;;;;;;;4983164;28;46830;-73
2023/04/22 02:44:14;;;;;;;;;24.25;23.00;;;;;;;;4983791;28;45309;-73
2023/04/22 02:46:39;;;;;;;;;31.00;26.50;;;;;;;;4986489;28;45352;-73
2023/04/22 02:49:05;;;;;;;;;29.50;26.00;;;;;;;;4991611;28;45318;-74
2023/04/22 02:51:31;;;;;;;;;28.25;24.75;;;;;;;;4977950;28;48464;-74
2023/04/22 02:53:57;;;;;;;;;23.50;22.50;;;;;;;;4980765;28;45325;-74
2023/04/22 02:56:22;;;;;;;;;25.50;25.50;;;;;;;;4975318;28;45369;-73
2023/04/22 02:58:47;;;;;;;;;26.00;24.00;;;;;;;;4973598;28;45309;-73
2023/04/22 03:01:12;;;;;;;;;30.50;26.50;;;;;;;;4977753;28;46200;-74
2023/04/22 03:03:38;;;;;;;;;24.00;23.50;;;;;;;;4988466;28;45323;-74
2023/04/22 03:06:03;;;;;;;;;24.50;18.25;;;;;;;;4984659;28;45376;-71
2023/04/22 03:08:28;;;;;;;;;28.50;23.75;;;;;;;;4981792;28;45270;-74
2023/04/22 03:10:54;;;;;;;;;30.25;25.75;;;;;;;;4990076;28;45927;-72
2023/04/22 03:13:19;;;;;;;;;27.25;23.00;;;;;;;;4978774;28;45370;-72
2023/04/22 03:15:44;;;;;;;;;31.75;30.75;;;;;;;;4987679;28;45479;-72
2023/04/22 03:18:09;;;;;;;;;25.75;24.00;;;;;;;;4985488;28;45592;-75
2023/04/22 03:20:35;;;;;;;;;24.50;22.50;;;;;;;;4980220;28;45562;-73
2023/04/22 03:23:00;;;;;;;;;30.50;26.50;;;;;;;;4985275;28;45387;-74
2023/04/22 03:25:25;;;;;;;;;25.75;25.25;;;;;;;;4990178;28;45430;-74
2023/04/22 03:27:51;;;;;;;;;30.00;26.75;;;;;;;;4981644;28;45518;-75
2023/04/22 03:30:16;;;;;;;;;28.50;27.25;;;;;;;;4977644;28;45397;-75
2023/04/22 03:32:41;;;;;;;;;29.00;28.00;;;;;;;;4974415;28;45449;-76
2023/04/22 03:35:07;;;;;;;;;36.00;33.00;;;;;;;;4985577;28;45484;-75
2023/04/22 03:37:32;;;;;;;;;27.75;24.25;;;;;;;;4973798;28;45534;-75
2023/04/22 03:39:57;;;;;;;;;32.75;28.25;;;;;;;;4983580;28;45940;-75
2023/04/22 03:42:22;;;;;;;;;27.50;26.25;;;;;;;;4981922;28;45353;-76
2023/04/22 03:44:48;;;;;;;;;31.25;29.00;;;;;;;;4978975;28;45583;-76
2023/04/22 03:47:13;;;;;;;;;32.25;28.75;;;;;;;;4988535;28;45540;-75
2023/04/22 03:49:38;;;;;;;;;28.75;27.75;;;;;;;;4987584;28;45904;-75
2023/04/22 03:52:03;;;;;;;;;27.00;25.75;;;;;;;;4986846;28;45742;-75
2023/04/22 03:54:28;;;;;;;;;30.25;29.00;;;;;;;;4983583;28;45404;-75
2023/04/22 03:56:54;;;;;;;;;33.00;29.75;;;;;;;;4994333;28;45341;-74
2023/04/22 03:59:19;;;;;;;;;31.25;27.00;;;;;;;;4972164;28;45459;-74
2023/04/22 04:01:45;;;;;;;;;38.00;28.75;;;;;;;;4983057;28;45516;-75
2023/04/22 04:04:10;;;;;;;;;32.00;27.50;;;;;;;;4981312;28;45369;-75
2023/04/22 04:06:36;;;;;;;;;25.00;24.75;;;;;;;;4983941;28;45361;-75
2023/04/22 04:09:02;;;;;;;;;22.50;22.50;;;;;;;;4993519;28;45609;-75
2023/04/22 04:11:27;;;;;;;;;33.25;31.25;;;;;;;;4982164;28;45499;-75
2023/04/22 04:13:52;;;;;;;;;37.50;32.00;;;;;;;;4989311;28;45925;-75
2023/04/22 04:16:17;;;;;;;;;29.00;27.00;;;;;;;;4980177;28;45446;-75
2023/04/22 04:18:42;;;;;;;;;31.00;29.50;;;;;;;;4991907;28;45689;-75
2023/04/22 04:21:08;;;;;;;;;35.25;31.00;;;;;;;;4980692;28;45494;-75
2023/04/22 04:23:33;;;;;;;;;25.25;23.75;;;;;;;;4991485;28;45404;-75
2023/04/22 04:26:01;;;;;;;;;27.75;26.50;;;;;;;;4985562;28;45418;-75
2023/04/22 04:28:28;;;;;;;;;32.50;30.00;;;;;;;;4983791;28;45549;-76
2023/04/22 04:30:54;;;;;;;;;31.25;29.50;;;;;;;;4993065;28;45360;-75
2023/04/22 04:33:19;;;;;;;;;39.25;35.00;;;;;;;;4980572;28;45443;-75
2023/04/22 04:35:44;;;;;;;;;30.00;26.25;;;;;;;;4989214;28;45619;-75
2023/04/22 04:38:11;;;;;;;;;31.50;29.25;;;;;;;;4987424;28;47148;-74
2023/04/22 04:40:36;;;;;;;;;34.50;34.00;;;;;;;;4982386;28;45357;-75
2023/04/22 04:43:03;;;;;;;;;41.00;34.25;;;;;;;;4993227;28;45264;-75
2023/04/22 04:45:28;;;;;;;;;39.00;31.75;;;;;;;;4980401;28;45567;-76
2023/04/22 04:47:54;;;;;;;;;35.50;33.25;;;;;;;;4990991;28;46862;-75
2023/04/22 04:50:19;;;;;;;;;34.75;31.50;;;;;;;;4984722;28;45719;-75
2023/04/22 04:52:45;;;;;;;;;35.00;32.00;;;;;;;;4979708;28;45391;-75
2023/04/22 04:55:10;;;;;;;;;47.75;36.75;;;;;;;;4993096;28;45321;-74
2023/04/22 04:57:36;;;;;;;;;46.25;39.75;;;;;;;;4982582;28;46170;-76
2023/04/22 05:00:02;;;;;;;;;48.25;39.00;;;;;;;;4987122;28;45523;-77
2023/04/22 05:02:27;;;;;;;;;54.25;43.00;;;;;;;;4989714;28;45457;-76
2023/04/22 05:04:52;;;;;;;;;50.25;41.75;;;;;;;;4980403;28;45435;-76
2023/04/22 05:07:17;;;;;;;;;48.00;40.25;;;;;;;;4984360;28;46183;-77
2023/04/22 05:09:42;;;;;;;;;47.50;39.00;;;;;;;;4988096;28;45489;-77
2023/04/22 05:12:08;;;;;;;;;45.00;38.75;;;;;;;;4979989;28;45312;-77
2023/04/22 05:14:33;;;;;;;;;49.25;40.00;;;;;;;;4990406;28;45346;-76
2023/04/22 05:16:59;;;;;;;;;43.50;37.50;;;;;;;;4979374;28;47102;-76
2023/04/22 05:19:24;;;;;;;;;44.75;39.00;;;;;;;;4992058;28;45408;-76
2023/04/22 05:21:49;;;;;;;;;53.75;41.75;;;;;;;;4983167;28;45409;-75
2023/04/22 05:24:14;;;;;;;;;53.25;45.75;;;;;;;;4983759;28;45504;-76
2023/04/22 05:26:40;;;;;;;;;50.75;43.75;;;;;;;;4990684;28;47024;-76
2023/04/22 05:29:06;;;;;;;;;50.50;41.25;;;;;;;;4977988;28;45554;-76
2023/04/22 05:31:32;;;;;;;;;55.00;42.75;;;;;;;;4990492;28;45491;-78
2023/04/22 05:33:57;;;;;;;;;48.75;40.75;;;;;;;;4985258;28;45441;-77
2023/04/22 05:36:23;;;;;;;;;51.00;41.00;;;;;;;;4983639;28;46116;-78
2023/04/22 05:38:48;;;;;;;;;51.00;39.50;;;;;;;;4991654;28;45431;-77
2023/04/22 05:41:13;;;;;;;;;46.00;37.75;;;;;;;;4979893;28;45412;-77
2023/04/22 05:43:38;;;;;;;;;52.25;42.00;;;;;;;;4989553;28;45409;-77
2023/04/22 05:46:03;;;;;;;;;46.75;39.50;;;;;;;;4985178;28;46097;-76
2023/04/22 05:48:29;;;;;;;;;49.00;40.00;;;;;;;;4990480;28;45452;-77
2023/04/22 05:50:54;;;;;;;;;47.25;40.50;;;;;;;;4979392;28;45440;-77
2023/04/22 05:53:19;;;;;;;;;52.50;41.50;;;;;;;;4982426;28;45495;-76
2023/04/22 05:55:44;;;;;;;;;46.50;40.25;;;;;;;;4982899;28;45427;-79
2023/04/22 05:58:10;;;;;;;;;54.50;44.00;;;;;;;;4983685;28;45328;-79
2023/04/22 06:00:35;;;;;;;;;59.25;47.75;;;;;;;;4972273;28;45573;-79
2023/04/22 06:03:00;;;;;;;;;56.75;46.25;;;;;;;;4979029;28;45435;-79
2023/04/22 06:05:25;;;;;;;;;53.50;42.75;;;;;;;;4980405;28;46014;-82
2023/04/22 06:07:50;;;;;;;;;55.75;43.00;;;;;;;;4984266;28;45403;-81
2023/04/22 06:10:16;;;;;;;;;59.00;47.50;;;;;;;;4983289;28;45420;-79
2023/04/22 06:12:41;;;;;;;;;60.50;50.50;;;;;;;;4976403;28;45470;-79
2023/04/22 06:15:06;;;;;;;;;58.25;46.25;;;;;;;;4975002;28;46587;-76
2023/04/22 06:17:31;;;;;;;;;55.75;46.00;;;;;;;;4975461;28;45358;-76
2023/04/22 06:19:57;;;;;;;;;54.50;46.50;;;;;;;;4976360;28;45506;-76
2023/04/22 06:22:22;;;;;;;;;57.50;46.00;;;;;;;;4975029;28;45405;-76
2023/04/22 06:24:47;;;;;;;;;58.50;47.00;;;;;;;;4976460;28;46317;-76
2023/04/22 06:27:12;;;;;;;;;56.50;46.00;;;;;;;;4975929;28;45396;-77
2023/04/22 06:29:38;;;;;;;;;54.50;46.00;;;;;;;;4976098;28;45343;-76
2023/04/22 06:32:03;;;;;;;;;56.75;43.25;;;;;;;;4976143;28;45274;-76
2023/04/22 06:34:28;;;;;;;;;54.50;43.75;;;;;;;;4974470;28;48500;-77
2023/04/22 06:36:53;;;;;;;;;52.75;42.75;;;;;;;;4975763;28;45298;-76
2023/04/22 06:39:19;;;;;;;;;56.00;45.75;;;;;;;;4975976;28;45357;-78
2023/04/22 06:41:44;;;;;;;;;55.75;44.75;;;;;;;;4976189;28;45368;-76
2023/04/22 06:44:10;;;;;;;;;51.50;44.00;;;;;;;;4975499;28;45400;-75
2023/04/22 06:46:35;;;;;;;;;56.00;45.75;;;;;;;;4975771;28;45271;-75
2023/04/22 06:49:00;;;;;;;;;54.25;43.50;;;;;;;;4976137;28;45365;-76
2023/04/22 06:51:25;;;;;;;;;50.75;42.25;;;;;;;;4976192;28;45210;-75
2023/04/22 06:53:50;;;;;;;;;34.75;33.25;;;;;;;;4976060;28;45392;-75
2023/04/22 06:56:16;;;;;;;;;51.75;44.25;;;;;;;;4975920;28;45547;-74
2023/04/22 06:58:41;;;;;;;;;53.50;43.75;;;;;;;;4975563;28;45431;-74
2023/04/22 07:01:06;;;;;;;;;52.25;41.00;;;;;;;;4976552;28;45532;-74
2023/04/22 07:03:31;;;;;;;;;52.75;43.00;;;;;;;;4976261;28;45400;-75
2023/04/22 07:05:56;;;;;;;;;55.50;45.25;;;;;;;;4972545;28;45326;-75
2023/04/22 07:08:22;;;;;;;;;51.00;43.75;;;;;;;;4965420;28;45357;-76
2023/04/22 07:10:47;;;;;;;;;47.25;38.50;;;;;;;;4977543;28;45555;-75
2023/04/22 07:13:12;;;;;;;;;49.25;41.25;;;;;;;;4976955;28;45334;-75
2023/04/22 07:15:37;;;;;;;;;59.75;46.75;;;;;;;;4974523;28;45527;-75
2023/04/22 07:18:02;;;;;;;;;58.75;47.25;;;;;;;;4975935;28;45456;-75
2023/04/22 07:20:28;;;;;;;;;55.25;45.75;;;;;;;;4975452;28;45515;-74
2023/04/22 07:22:53;;;;;;;;;54.50;44.50;;;;;;;;4975445;28;46120;-74
2023/04/22 07:25:18;;;;;;;;;55.00;44.00;;;;;;;;4975554;28;45330;-74
2023/04/22 07:27:43;;;;;;;;;55.25;43.75;;;;;;;;4978839;28;45282;-74
2023/04/22 07:30:10;;;;;;;;;54.25;43.50;;;;;;;;4979001;28;45353;-74
2023/04/22 07:32:35;;;;;;;;;53.75;43.00;;;;;;;;4978873;28;46380;-74
2023/04/22 07:35:01;;;;;;;;;52.50;41.25;;;;;;;;4979011;28;45360;-74
2023/04/22 07:37:26;;;;;;;;;52.25;43.50;;;;;;;;4978518;28;45485;-74
2023/04/22 07:39:51;;;;;;;;;45.25;38.75;;;;;;;;4978563;28;45393;-74
2023/04/22 07:42:16;;;;;;;;;54.75;40.25;;;;;;;;4978302;28;45558;-74
2023/04/22 07:44:41;;;;;;;;;51.25;41.25;;;;;;;;4978631;28;45553;-75
2023/04/22 07:47:10;;;;;;;;;49.00;39.75;;;;;;;;4978685;28;45356;-75
2023/04/22 07:49:35;;;;;;;;;52.25;39.25;;;;;;;;4978501;28;45326;-75
2023/04/22 07:52:00;;;;;;;;;45.00;39.00;;;;;;;;4978396;28;45508;-74
2023/04/22 07:54:25;;;;;;;;;48.50;40.25;;;;;;;;4978508;28;45438;-75
2023/04/22 07:56:50;;;;;;;;;50.00;42.25;;;;;;;;4977133;28;45437;-73
2023/04/22 07:59:16;;;;;;;;;45.50;39.25;;;;;;;;4978561;28;45376;-73
2023/04/22 08:01:41;;;;;;;;;52.75;44.00;;;;;;;;4978354;28;45588;-76
2023/04/22 08:04:06;;;;;;;;;54.75;42.00;;;;;;;;4978313;28;45371;-73
2023/04/22 08:06:31;;;;;;;;;55.75;44.50;;;;;;;;4969056;28;45366;-76
2023/04/22 08:08:57;;;;;;;;;57.75;46.00;;;;;;;;4958952;28;45350;-76
2023/04/22 08:11:22;;;;;;;;;53.25;44.00;;;;;;;;4958468;28;45515;-76
2023/04/22 08:13:47;;;;;;;;;50.75;43.75;;;;;;;;4958880;28;45355;-76
2023/04/22 08:16:12;;;;;;;;;48.00;37.50;;;;;;;;4958882;28;45514;-77
2023/04/22 08:18:37;;;;;;;;;45.50;40.00;;;;;;;;4958708;28;45620;-77
2023/04/22 08:21:03;;;;;;;;;43.75;37.00;;;;;;;;4958682;28;45424;-74
2023/04/22 08:23:28;;;;;;;;;44.00;40.25;;;;;;;;4958416;28;45697;-76
2023/04/22 08:25:53;;;;;;;;;37.00;35.25;;;;;;;;4958525;28;45454;-73
2023/04/22 08:28:18;;;;;;;;;44.75;37.75;;;;;;;;4958480;28;45373;-76
2023/04/22 08:30:44;;;;;;;;;42.25;36.25;;;;;;;;4958415;28;45470;-77
2023/04/22 08:33:10;;;;;;;;;55.25;41.25;;;;;;;;4974611;28;45444;-77
2023/04/22 08:35:35;;;;;;;;;48.50;40.25;;;;;;;;4976634;28;45412;-74
2023/04/22 08:38:01;;;;;;;;;52.75;44.50;;;;;;;;4977615;28;45395;-76
2023/04/22 08:40:26;;;;;;;;;52.00;43.25;;;;;;;;4977679;28;45466;-74
2023/04/22 08:42:51;;;;;;;;;50.00;40.75;;;;;;;;4977428;28;45385;-75
2023/04/22 08:45:17;;;;;;;;;55.00;46.75;;;;;;;;4977605;28;45322;-76
2023/04/22 08:47:43;;;;;;;;;57.25;44.50;;;;;;;;4977352;28;45503;-73
2023/04/22 08:50:08;;;;;;;;;55.00;42.75;;;;;;;;4977320;28;45944;-76
2023/04/22 08:52:33;;;;;;;;;60.50;48.50;;;;;;;;4977476;28;45365;-76
2023/04/22 08:54:59;;;;;;;;;56.25;47.75;;;;;;;;4977352;28;45331;-73
2023/04/22 08:57:25;;;;;;;;;57.75;46.50;;;;;;;;4975636;28;45372;-76
2023/04/22 08:59:50;;;;;;;;;56.75;47.50;;;;;;;;4977206;28;45761;-76
2023/04/22 09:02:18;;;;;;;;;51.25;44.00;;;;;;;;4977614;28;45304;-76
2023/04/22 09:04:45;;;;;;;;;60.50;49.00;;;;;;;;4976760;28;45352;-77
2023/04/22 09:07:12;;;;;;;;;55.25;45.25;;;;;;;;4977070;28;45311;-77
2023/04/22 09:09:37;;;;;;;;;56.25;45.50;;;;;;;;4977291;28;45961;-77
2023/04/22 09:12:04;;;;;;;;;61.25;46.00;;;;;;;;4977509;28;45322;-77
2023/04/22 09:14:29;;;;;;;;;63.25;48.25;;;;;;;;4975187;28;45440;-77
2023/04/22 09:16:56;;;;;;;;;60.00;48.75;;;;;;;;4976659;28;45492;-77
2023/04/22 09:19:23;;;;;;;;;52.75;44.00;;;;;;;;4976105;28;46249;-79
2023/04/22 09:21:48;;;;;;;;;57.25;45.25;;;;;;;;4975472;28;45509;-79
2023/04/22 09:24:15;;;;;;;;;52.25;44.25;;;;;;;;4976037;28;45937;-78
2023/04/22 09:26:41;;;;;;;;;56.75;43.00;;;;;;;;4977083;28;45449;-78
2023/04/22 09:29:08;;;;;;;;;52.50;42.50;;;;;;;;4976911;28;45392;-78
2023/04/22 09:31:36;;;;;;;;;51.00;42.75;;;;;;;;4975813;28;45433;-78
2023/04/22 09:34:02;;;;;;;;;50.50;42.50;;;;;;;;4977413;28;45378;-77
2023/04/22 09:36:28;;;;;;;;;56.00;45.75;;;;;;;;4976941;28;45314;-78
2023/04/22 09:38:54;;;;;;;;;58.25;46.50;;;;;;;;4976884;28;47106;-77
2023/04/22 09:41:37;;;;;;;;;55.25;46.50;;;;;;;;4976879;28;45401;-78
2023/04/22 09:44:03;;;;;;;;;53.00;42.25;;;;;;;;4975497;28;45478;-79
2023/04/22 09:46:29;;;;;;;;;56.00;47.75;;;;;;;;4977083;28;45468;-79
2023/04/22 09:48:55;;;;;;;;;54.75;43.75;;;;;;;;4975902;28;45323;-79
2023/04/22 09:51:21;;;;;;;;;50.00;42.00;;;;;;;;4976637;28;45443;-80
2023/04/22 09:54:05;;;;;;;;;55.00;44.75;;;;;;;;4976334;28;45427;-80
2023/04/22 09:56:43;;;;;;;;;52.50;44.00;;;;;;;;4972721;28;45665;-79
2023/04/22 09:59:09;;;;;;;;;51.00;42.25;;;;;;;;4972098;28;46031;-79
2023/04/22 10:01:35;;;;;;;;;48.75;40.75;;;;;;;;4963357;28;45588;-77
2023/04/22 10:04:00;;;;;;;;;55.50;46.00;;;;;;;;4969005;28;46569;-77
2023/04/22 10:06:26;;;;;;;;;49.75;41.25;;;;;;;;4976074;28;45523;-78
2023/04/22 10:08:51;;;;;;;;;50.00;41.50;;;;;;;;4976968;28;45384;-77
2023/04/22 10:11:16;;;;;;;;;49.75;41.50;;;;;;;;4972469;28;45442;-78
2023/04/22 10:13:42;;;;;;;;;41.50;37.25;;;;;;;;4971814;28;45418;-76
2023/04/22 10:16:07;;;;;;;;;56.25;45.75;;;;;;;;4977588;28;45530;-76
2023/04/22 10:18:33;;;;;;;;;52.00;42.00;;;;;;;;4978478;28;46119;-76
2023/04/22 10:20:58;;;;;;;;;45.50;38.50;;;;;;;;4978588;28;45460;-76
2023/04/22 10:23:24;;;;;;;;;46.00;37.75;;;;;;;;4979901;28;45410;-75
2023/04/22 10:25:52;;;;;;;;;50.50;40.00;;;;;;;;4975973;28;45586;-75
2023/04/22 10:28:19;;;;;;;;;48.75;38.50;;;;;;;;4974793;28;45983;-76
2023/04/22 10:30:44;;;;;;;;;32.50;30.50;;;;;;;;4973957;28;45389;-77
2023/04/22 10:33:30;;;;;;;;;42.25;35.50;;;;;;;;4976015;28;45360;-75
2023/04/22 10:36:07;;;;;;;;;48.00;40.25;;;;;;;;4975713;28;45401;-75
2023/04/22 10:38:33;;;;;;;;;43.25;36.25;;;;;;;;4975768;28;46603;-75
2023/04/22 10:40:59;;;;;;;;;42.50;36.00;;;;;;;;4976234;28;45511;-75
2023/04/22 10:43:43;;;;;;;;;41.00;35.25;;;;;;;;4972519;28;45421;-75
2023/04/22 10:46:27;;;;;;;;;35.50;34.00;;;;;;;;4976020;28;45372;-75
2023/04/22 10:48:55;;;;;;;;;45.25;34.75;;;;;;;;4956003;28;46318;-75
2023/04/22 10:51:39;;;;;;;;;42.00;35.25;;;;;;;;4956460;28;45414;-75
2023/04/22 10:54:05;;;;;;;;;34.75;32.25;;;;;;;;4956349;28;45395;-75
2023/04/22 10:56:30;;;;;;;;;30.75;29.75;;;;;;;;4966620;28;45468;-75
2023/04/22 10:58:55;;;;;;;;;34.75;27.75;;;;;;;;4976103;28;45483;-76
2023/04/22 11:01:20;;;;;;;;;16.75;12.25;;;;;;;;4956292;28;45366;-76
2023/04/22 11:03:46;;;;;;;;;31.00;29.25;;;;;;;;4955300;28;45903;-76
2023/04/22 11:06:26;;;;;;;;;30.50;29.00;;;;;;;;4969360;28;45365;-75
2023/04/22 11:09:07;;;;;;;;;22.00;20.00;;;;;;;;4972954;28;47502;-75
2023/04/22 11:11:32;;;;;;;;;26.50;25.25;;;;;;;;4973144;28;45516;-75
2023/04/22 11:13:57;;;;;;;;;27.75;27.75;;;;;;;;4972615;28;45521;-75
2023/04/22 11:16:22;;;;;;;;;34.25;28.00;;;;;;;;4966114;28;45636;-75
2023/04/22 11:18:48;;;;;;;;;25.00;24.00;;;;;;;;4974606;28;46216;-75
2023/04/22 11:21:13;;;;;;;;;28.75;24.00;;;;;;;;4975348;28;45500;-74
2023/04/22 11:23:48;;;;;;;;;35.00;28.50;;;;;;;;4972784;28;45538;-74
2023/04/22 11:26:13;;;;;;;;;14.50;13.25;;;;;;;;4974838;28;45388;-75
2023/04/22 11:28:44;;;;;;;;;23.00;19.50;;;;;;;;4966336;28;46029;-75
2023/04/22 11:31:09;;;;;;;;;35.00;32.00;;;;;;;;4956369;28;45593;-75
2023/04/22 11:33:37;;;;;;;;;25.00;25.00;;;;;;;;4974514;28;45479;-74
2023/04/22 11:36:02;;;;;;;;;26.75;25.25;;;;;;;;4974190;28;45464;-75
2023/04/22 11:38:27;;;;;;;;;27.50;24.75;;;;;;;;4975416;28;45766;-75
2023/04/22 11:40:54;;;;;;;;;23.25;19.50;;;;;;;;4975302;28;45604;-75
2023/04/22 11:43:19;;;;;;;;;27.00;25.00;;;;;;;;4974994;28;45525;-75
2023/04/22 11:45:45;;;;;;;;;21.25;20.25;;;;;;;;4975318;28;45344;-75
2023/04/22 11:48:10;;;;;;;;;26.00;25.00;;;;;;;;4974756;28;46422;-76
2023/04/22 11:50:37;;;;;;;;;24.75;24.75;;;;;;;;4974989;28;45325;-75
2023/04/22 11:53:22;;;;;;;;;31.50;26.50;;;;;;;;4975416;28;45273;-75
2023/04/22 11:55:51;;;;;;;;;27.75;26.25;;;;;;;;4974746;28;45611;-76
2023/04/22 11:58:19;;;;;;;;;30.50;28.75;;;;;;;;4974871;28;46077;-76
2023/04/22 12:00:45;;;;;;;;;24.75;21.00;;;;;;;;4974993;28;45492;-76
2023/04/22 12:03:11;;;;;;;;;25.25;23.25;;;;;;;;4974640;28;45408;-77
2023/04/22 12:05:38;;;;;;;;;25.00;23.50;;;;;;;;4973061;28;45487;-76
2023/04/22 12:08:06;;;;;;;;;28.25;25.50;;;;;;;;4954081;28;45505;-75
2023/04/22 12:10:31;;;;;;;;;19.25;19.25;;;;;;;;4955462;28;45456;-75
2023/04/22 12:12:56;;;;;;;;;27.25;23.25;;;;;;;;4957758;28;45584;-75
2023/04/22 12:15:22;;;;;;;;;22.50;19.50;;;;;;;;4961908;28;45464;-77
2023/04/22 12:17:50;;;;;;;;;29.00;26.75;;;;;;;;4977675;28;46076;-76
2023/04/22 12:20:15;;;;;;;;;23.00;22.75;;;;;;;;4977010;28;45355;-75
2023/04/22 12:22:40;;;;;;;;;31.25;30.25;;;;;;;;4978288;28;45318;-75
2023/04/22 12:25:06;;;;;;;;;33.75;30.75;;;;;;;;4978114;28;45452;-74
2023/04/22 12:27:31;;;;;;;;;29.25;27.50;;;;;;;;4978652;28;45469;-75
2023/04/22 12:29:57;;;;;;;;;30.50;29.50;;;;;;;;4978368;28;45251;-76
2023/04/22 12:32:23;;;;;;;;;30.50;28.50;;;;;;;;4978354;28;45417;-77
2023/04/22 12:34:48;;;;;;;;;26.75;25.00;;;;;;;;4978203;28;45524;-75
2023/04/22 12:37:13;;;;;;;;;32.25;24.50;;;;;;;;4978076;28;46726;-76
2023/04/22 12:39:39;;;;;;;;;27.00;22.75;;;;;;;;4976650;28;46151;-75
2023/04/22 12:42:04;;;;;;;;;29.00;27.50;;;;;;;;4978121;28;45324;-76
2023/04/22 12:44:30;;;;;;;;;31.25;27.00;;;;;;;;4978014;28;45434;-76
2023/04/22 12:46:55;;;;;;;;;35.25;30.25;;;;;;;;4977572;28;45621;-76
2023/04/22 12:49:20;;;;;;;;;28.75;27.50;;;;;;;;4977598;28;45424;-76
2023/04/22 12:51:46;;;;;;;;;28.75;25.75;;;;;;;;4976605;28;45372;-77
2023/04/22 12:54:11;;;;;;;;;31.50;28.50;;;;;;;;4977789;28;45289;-75
2023/04/22 12:56:36;;;;;;;;;29.50;29.50;;;;;;;;4977289;28;46708;-76
2023/04/22 12:59:02;;;;;;;;;29.50;28.00;;;;;;;;4977726;28;45364;-76
2023/04/22 13:01:28;;;;;;;;;16.25;15.25;;;;;;;;4977246;28;45381;-77
2023/04/22 13:03:53;;;;;;;;;27.00;23.25;;;;;;;;4977656;28;45570;-76
2023/04/22 13:06:18;;;;;;;;;29.00;27.75;;;;;;;;4969584;28;46419;-76
2023/04/22 13:08:43;;;;;;;;;22.50;22.50;;;;;;;;4957920;28;45331;-76
2023/04/22 13:11:09;;;;;;;;;34.00;25.50;;;;;;;;4958240;28;45243;-76
2023/04/22 13:13:34;;;;;;;;;24.75;19.25;;;;;;;;4957979;28;45451;-76
2023/04/22 13:16:00;;;;;;;;;24.25;23.00;;;;;;;;4964692;28;47137;-77
2023/04/22 13:18:26;;;;;;;;;24.75;24.25;;;;;;;;4977373;28;45416;-76
2023/04/22 13:20:51;;;;;;;;;27.75;25.50;;;;;;;;4977439;28;45394;-76
2023/04/22 13:23:18;;;;;;;;;22.25;19.75;;;;;;;;4976116;28;45443;-76
2023/04/22 13:25:43;;;;;;;;;29.00;25.25;;;;;;;;4977539;28;45491;-76
2023/04/22 13:28:10;;;;;;;;;24.75;23.00;;;;;;;;4975813;28;45450;-76
2023/04/22 13:30:35;;;;;;;;;17.75;17.50;;;;;;;;4978798;28;45485;-75
2023/04/22 13:33:00;;;;;;;;;22.25;22.25;;;;;;;;4979540;28;45304;-75
2023/04/22 13:35:26;;;;;;;;;23.50;22.00;;;;;;;;4980119;28;46357;-76
2023/04/22 13:37:51;;;;;;;;;29.75;22.75;;;;;;;;4979943;28;45527;-75
2023/04/22 13:40:16;;;;;;;;;22.50;21.00;;;;;;;;4979889;28;45470;-76
2023/04/22 13:42:43;;;;;;;;;23.25;22.50;;;;;;;;4976998;28;45336;-76
2023/04/22 13:45:08;;;;;;;;;24.75;22.75;;;;;;;;4977548;28;45501;-76
2023/04/22 13:47:33;;;;;;;;;22.75;21.25;;;;;;;;4976568;28;45424;-76
2023/04/22 13:50:00;;;;;;;;;22.50;20.00;;;;;;;;4977388;28;45409;-76
2023/04/22 13:52:25;;;;;;;;;21.25;19.75;;;;;;;;4977348;28;45338;-76
2023/04/22 13:54:52;;;;;;;;;19.50;19.50;;;;;;;;4977099;28;46268;-75
2023/04/22 13:57:17;;;;;;;;;25.75;22.50;;;;;;;;4976586;28;45374;-76
2023/04/22 13:59:43;;;;;;;;;22.00;21.25;;;;;;;;4975865;28;45443;-76
2023/04/22 14:02:08;;;;;;;;;20.00;17.50;;;;;;;;4975648;28;45406;-76
2023/04/22 14:04:34;;;;;;;;;16.25;16.25;;;;;;;;4976707;28;46330;-76
2023/04/22 14:06:59;;;;;;;;;18.75;18.75;;;;;;;;4963459;28;45359;-76
2023/04/22 14:09:25;;;;;;;;;20.75;20.75;;;;;;;;4957748;28;45384;-76